Time;durP1;ratioP1;P1;durP2;ratioP2;P2;SDS_P1;SDS_P2;PMS_P1;PMS_P2;Temp;Humidity;BMP_temperature;BMP_pressure;BME280_temperature;BME280_humidity;BME280_pressure;Samples;Min_cycle;Max_cycle;Signal;HPM_P1;HPM_P2
2022/01/26 00:06:35;;;;;;;8.80;3.33;;;4.30;77.50;;;;;;5023770;28;20198;-66
2022/01/26 00:09:02;;;;;;;9.35;4.40;;;4.30;77.50;;;;;;5024552;28;20045;-67
2022/01/26 00:11:31;;;;;;;9.50;3.97;;;4.30;77.40;;;;;;5022777;28;20056;-67
2022/01/26 00:13:59;;;;;;;9.88;3.50;;;4.30;77.40;;;;;;5022747;28;20056;-66
2022/01/26 00:16:28;;;;;;;9.88;4.28;;;4.30;77.30;;;;;;5024512;28;20049;-67
2022/01/26 00:18:59;;;;;;;10.32;4.75;;;4.30;77.50;;;;;;5026002;28;20060;-68
2022/01/26 00:21:30;;;;;;;9.32;4.05;;;4.30;77.40;;;;;;5026995;28;20052;-67
2022/01/26 00:27:05;;;;;;;12.30;4.47;;;4.30;77.60;;;;;;5026890;28;20048;-67
2022/01/26 00:29:35;;;;;;;10.63;4.82;;;4.30;77.60;;;;;;5029809;28;20063;-67
2022/01/26 00:40:28;;;;;;;11.25;4.18;;;4.30;77.70;;;;;;5043988;28;20057;-67
2022/01/26 00:42:59;;;;;;;13.43;5.85;;;4.30;77.90;;;;;;5046095;28;20049;-66
2022/01/26 00:45:33;;;;;;;9.82;3.75;;;4.30;78.00;;;;;;5044097;28;20056;-68
2022/01/26 00:48:03;;;;;;;10.85;4.80;;;4.30;78.00;;;;;;5048926;28;20044;-67
2022/01/26 00:50:30;;;;;;;11.35;4.18;;;4.30;77.90;;;;;;5050927;28;20056;-66
2022/01/26 00:52:57;;;;;;;10.43;4.43;;;4.30;77.80;;;;;;5054141;28;20047;-67
2022/01/26 00:55:25;;;;;;;14.07;5.85;;;4.30;77.90;;;;;;5053048;28;20044;-69
2022/01/26 00:57:52;;;;;;;13.20;5.85;;;4.20;78.10;;;;;;5053970;28;20052;-68
2022/01/26 01:00:22;;;;;;;11.43;5.13;;;4.30;78.10;;;;;;5048762;28;20068;-67
2022/01/26 01:02:50;;;;;;;14.18;6.03;;;4.20;78.00;;;;;;5053013;28;20063;-67
2022/01/26 01:05:20;;;;;;;15.80;6.35;;;4.20;78.00;;;;;;5034544;28;20077;-67
2022/01/26 01:07:50;;;;;;;13.87;6.67;;;4.20;78.00;;;;;;5031754;28;20062;-67
2022/01/26 01:10:21;;;;;;;15.80;7.45;;;4.20;78.20;;;;;;5049700;28;20053;-68
2022/01/26 01:12:54;;;;;;;12.30;5.95;;;4.20;78.30;;;;;;5050039;28;20462;-68
2022/01/26 01:15:21;;;;;;;11.75;5.90;;;4.20;78.40;;;;;;5047794;28;20249;-68
2022/01/26 01:17:52;;;;;;;12.85;6.00;;;4.20;78.40;;;;;;5049442;28;20064;-68
2022/01/26 01:20:36;;;;;;;12.57;6.28;;;4.20;78.50;;;;;;5049308;28;20048;-67
2022/01/26 01:23:27;;;;;;;14.07;6.93;;;4.20;78.50;;;;;;5046248;28;20131;-67
2022/01/26 01:26:25;;;;;;;19.42;7.38;;;4.20;78.50;;;;;;5007653;28;20045;-67
2022/01/26 01:29:09;;;;;;;15.55;5.80;;;4.20;78.70;;;;;;5044740;28;20716;-67
2022/01/26 01:31:46;;;;;;;14.77;6.65;;;4.20;78.80;;;;;;5044084;28;20048;-67
2022/01/26 01:34:16;;;;;;;18.73;7.10;;;4.20;78.60;;;;;;5044965;28;20044;-67
2022/01/26 01:36:45;;;;;;;16.65;7.72;;;4.20;78.50;;;;;;5050367;28;20193;-67
2022/01/26 01:39:13;;;;;;;16.07;7.97;;;4.30;78.50;;;;;;5052499;28;20055;-69
2022/01/26 01:41:42;;;;;;;16.05;7.07;;;4.30;78.40;;;;;;5048969;28;20046;-66
2022/01/26 01:44:11;;;;;;;18.80;8.07;;;4.30;78.40;;;;;;5049909;28;20051;-66
2022/01/26 01:46:40;;;;;;;15.18;6.50;;;4.30;78.40;;;;;;5049886;28;21095;-67
2022/01/26 01:49:07;;;;;;;16.70;7.90;;;4.20;78.40;;;;;;5050677;28;20179;-67
2022/01/26 01:51:37;;;;;;;18.92;7.30;;;4.20;78.50;;;;;;5047876;28;20045;-67
2022/01/26 01:54:05;;;;;;;17.77;7.10;;;4.20;78.40;;;;;;5049007;28;20049;-67
2022/01/26 01:56:32;;;;;;;20.25;8.05;;;4.20;78.30;;;;;;5050297;28;20569;-68
2022/01/26 01:58:59;;;;;;;22.38;8.55;;;4.20;78.40;;;;;;5051925;28;20063;-69
2022/01/26 02:01:37;;;;;;;13.39;4.90;;;4.20;78.40;;;;;;3863876;28;10024342;-68
2022/01/26 02:04:05;;;;;;;24.63;9.52;;;4.20;78.40;;;;;;2437412;28;10002117;-68
2022/01/26 02:06:31;;;;;;;15.82;7.30;;;4.20;78.50;;;;;;5055333;28;20050;-70
2022/01/26 02:08:58;;;;;;;20.02;7.40;;;4.20;78.50;;;;;;5051106;28;20048;-68
2022/01/26 02:11:25;;;;;;;17.23;7.97;;;4.20;78.50;;;;;;5051639;28;20060;-69
2022/01/26 02:14:00;;;;;;;16.73;8.32;;;4.30;78.30;;;;;;5053212;28;20371;-67
2022/01/26 02:16:32;;;;;;;17.58;7.97;;;4.30;78.20;;;;;;5054854;28;20229;-68
2022/01/26 02:49:52;;;;;;;18.90;7.78;;;4.20;78.70;;;;;;5051224;28;21982;-68
2022/01/26 02:52:38;;;;;;;17.05;7.35;;;4.20;78.80;;;;;;5043957;28;20056;-67
2022/01/26 02:55:17;;;;;;;18.08;7.93;;;4.20;78.80;;;;;;5033463;28;20053;-68
2022/01/26 02:58:05;;;;;;;15.70;7.13;;;4.20;78.80;;;;;;5053635;28;20056;-68
2022/01/26 03:00:41;;;;;;;17.98;6.85;;;4.20;78.80;;;;;;5050123;28;20098;-68
2022/01/26 03:03:16;;;;;;;23.77;9.27;;;4.20;78.90;;;;;;5050974;28;20155;-67
2022/01/26 03:05:50;;;;;;;20.20;8.43;;;4.20;78.90;;;;;;5045574;28;20052;-68
2022/01/26 03:08:25;;;;;;;20.95;7.75;;;4.20;78.90;;;;;;5053653;28;20053;-67
2022/01/26 03:10:56;;;;;;;24.90;8.10;;;4.20;78.90;;;;;;5054189;28;20056;-70
2022/01/26 03:13:27;;;;;;;;;;;4.20;79.00;;;;;;5054502;28;20040;-68
2022/01/26 03:15:59;;;;;;;25.98;9.27;;;4.10;79.00;;;;;;5054178;28;19989;-69
2022/01/26 03:18:50;;;;;;;16.63;8.48;;;4.10;79.00;;;;;;5053675;28;20179;-68
2022/01/26 03:21:20;;;;;;;19.88;7.75;;;4.20;79.00;;;;;;5052542;28;20048;-67
2022/01/26 03:29:38;;;;;;;20.45;7.00;;;4.20;78.90;;;;;;5050885;28;20048;-68
2022/01/26 03:34:53;;;;;;;18.60;7.30;;;4.10;79.00;;;;;;5000172;28;20068;-67
2022/01/26 03:37:22;;;;;;;18.20;7.68;;;4.20;79.10;;;;;;5026664;28;20056;-68
2022/01/26 03:39:51;;;;;;;20.65;8.82;;;4.10;79.10;;;;;;5050255;28;20057;-68
2022/01/26 03:42:19;;;;;;;19.65;8.00;;;4.10;79.00;;;;;;5050131;28;20044;-67
2022/01/26 03:44:47;;;;;;;18.17;7.20;;;4.10;79.00;;;;;;5050169;28;20048;-68
2022/01/26 03:47:15;;;;;;;19.00;9.75;;;4.10;79.10;;;;;;5047760;28;20379;-67
2022/01/26 03:49:42;;;;;;;19.67;8.65;;;4.10;79.10;;;;;;5032407;28;20064;-68
2022/01/26 03:52:10;;;;;;;17.90;8.10;;;4.10;79.20;;;;;;5027244;28;20079;-69
2022/01/26 03:54:37;;;;;;;19.33;8.55;;;4.10;79.30;;;;;;5028243;28;20779;-66
2022/01/26 03:57:05;;;;;;;19.77;7.40;;;4.10;79.20;;;;;;5030081;28;20280;-67
2022/01/26 03:59:33;;;;;;;16.15;7.93;;;4.10;79.30;;;;;;5030943;28;20489;-67
2022/01/26 04:02:10;;;;;;;7.70;5.55;;;4.10;79.30;;;;;;4213561;28;10001129;-68
2022/01/26 04:04:44;;;;;;;19.55;8.43;;;4.10;79.20;;;;;;1388147;28;10002010;-66
2022/01/26 04:07:11;;;;;;;23.80;8.70;;;4.00;79.20;;;;;;5052035;28;20063;-68
2022/01/26 04:09:38;;;;;;;19.20;8.15;;;4.10;79.30;;;;;;5034817;28;20084;-68
2022/01/26 04:12:06;;;;;;;14.57;7.10;;;4.10;79.30;;;;;;5050687;28;20557;-67
2022/01/26 04:14:35;;;;;;;15.07;6.78;;;4.10;79.30;;;;;;5051818;28;20086;-66
2022/01/26 04:17:02;;;;;;;21.02;6.68;;;4.10;79.30;;;;;;5052580;28;20187;-67
2022/01/26 04:19:32;;;;;;;18.95;8.57;;;4.10;79.10;;;;;;5051839;28;20052;-69
2022/01/26 04:22:09;;;;;;;17.13;6.75;;;4.10;79.00;;;;;;5052990;28;20052;-67
2022/01/26 04:24:40;;;;;;;20.67;7.78;;;4.10;78.70;;;;;;5052608;28;20055;-67
2022/01/26 04:27:16;;;;;;;;;;;4.00;78.60;;;;;;5050410;28;20145;-66
2022/01/26 04:29:46;;;;;;;14.55;6.07;;;4.10;78.50;;;;;;5051912;28;19925;-69
2022/01/26 04:32:15;;;;;;;14.38;5.57;;;4.00;78.30;;;;;;5051831;28;20201;-68
2022/01/26 04:34:42;;;;;;;14.57;6.07;;;4.00;78.50;;;;;;5046610;28;20047;-67
2022/01/26 04:37:17;;;;;;;15.07;6.57;;;4.00;78.40;;;;;;5030178;28;20061;-67
2022/01/26 04:39:49;;;;;;;16.60;7.00;;;4.00;78.40;;;;;;5040333;28;20052;-66
2022/01/26 04:42:21;;;;;;;16.52;7.22;;;4.00;78.20;;;;;;5028852;28;20107;-67
2022/01/26 04:44:56;;;;;;;14.85;5.93;;;4.00;78.10;;;;;;5031136;28;20490;-66
2022/01/26 04:47:23;;;;;;;14.30;6.00;;;4.00;77.90;;;;;;5033064;28;20056;-68
2022/01/26 04:49:50;;;;;;;14.93;6.35;;;4.00;77.90;;;;;;5031441;28;20394;-67
2022/01/26 04:52:17;;;;;;;14.52;6.97;;;4.00;77.80;;;;;;5029836;28;20053;-66
2022/01/26 04:54:44;;;;;;;15.27;6.40;;;4.00;77.70;;;;;;5032495;28;20696;-66
2022/01/26 04:57:11;;;;;;;19.98;6.93;;;4.00;77.60;;;;;;5032815;28;20083;-67
2022/01/26 04:59:37;;;;;;;14.07;6.63;;;4.00;77.70;;;;;;5051871;28;20070;-67
2022/01/26 05:02:06;;;;;;;16.17;6.32;;;4.00;77.60;;;;;;5048830;28;20057;-67
2022/01/26 05:04:33;;;;;;;15.38;5.40;;;4.00;77.70;;;;;;5050738;28;20048;-67
2022/01/26 05:07:00;;;;;;;15.63;6.10;;;4.00;77.70;;;;;;5052228;28;20057;-67
2022/01/26 05:09:27;;;;;;;12.43;5.85;;;4.00;77.70;;;;;;5051075;28;20736;-68
2022/01/26 05:11:55;;;;;;;12.93;5.82;;;4.00;77.70;;;;;;5051200;28;21625;-68
2022/01/26 05:14:22;;;;;;;16.02;5.82;;;4.00;77.60;;;;;;5051273;28;20045;-66
2022/01/26 05:16:50;;;;;;;16.38;5.70;;;3.90;77.60;;;;;;5051404;28;20093;-67
2022/01/26 05:19:18;;;;;;;12.73;5.60;;;3.90;77.60;;;;;;5049239;28;20490;-69
2022/01/26 05:21:45;;;;;;;14.95;5.78;;;3.90;77.70;;;;;;5048196;28;20044;-67
2022/01/26 05:24:12;;;;;;;11.90;5.68;;;3.90;77.60;;;;;;5049221;28;20423;-67
2022/01/26 05:26:40;;;;;;;13.75;4.80;;;3.90;77.70;;;;;;5049860;28;20047;-67
2022/01/26 05:29:08;;;;;;;10.38;4.57;;;3.90;77.70;;;;;;5051337;28;20063;-67
2022/01/26 05:31:35;;;;;;;13.38;5.10;;;3.90;77.60;;;;;;5050511;28;20049;-67
2022/01/26 05:34:02;;;;;;;13.63;6.50;;;3.90;77.70;;;;;;5051588;28;20052;-68
2022/01/26 05:36:30;;;;;;;14.20;5.15;;;3.90;77.70;;;;;;5054501;28;20512;-68
2022/01/26 05:38:57;;;;;;;13.52;4.63;;;3.90;77.60;;;;;;5054794;28;20049;-66
2022/01/26 05:41:24;;;;;;;11.85;5.45;;;3.90;77.50;;;;;;5056040;28;20057;-68
2022/01/26 05:43:51;;;;;;;11.68;5.57;;;3.80;77.50;;;;;;5036191;28;20052;-67
2022/01/26 05:46:25;;;;;;;11.88;4.72;;;3.90;77.60;;;;;;5056883;28;20052;-66
2022/01/26 05:48:53;;;;;;;13.70;5.72;;;3.90;77.70;;;;;;5057356;28;20135;-66
2022/01/26 05:51:20;;;;;;;11.60;4.53;;;3.90;77.50;;;;;;5056406;28;21698;-67
2022/01/26 05:53:48;;;;;;;12.65;4.55;;;3.90;77.40;;;;;;5057018;28;20053;-69
2022/01/26 05:56:15;;;;;;;11.10;4.28;;;3.80;77.20;;;;;;5055991;28;20131;-67
2022/01/26 05:58:42;;;;;;;14.05;5.75;;;3.90;77.20;;;;;;5056550;28;20048;-68
2022/01/26 06:01:14;;;;;;;10.70;4.85;;;3.90;77.20;;;;;;3687735;28;10024272;-70
2022/01/26 06:03:41;;;;;;;10.40;5.00;;;3.90;77.30;;;;;;1740646;28;10002018;-67
2022/01/26 06:06:08;;;;;;;16.42;4.13;;;3.80;77.30;;;;;;5056222;28;20213;-68
2022/01/26 06:08:36;;;;;;;10.63;4.60;;;3.90;77.20;;;;;;5055752;28;20131;-66
2022/01/26 06:11:04;;;;;;;12.02;4.13;;;3.80;76.80;;;;;;5054788;28;20426;-66
2022/01/26 06:13:31;;;;;;;11.05;4.68;;;3.80;76.50;;;;;;5055677;28;20056;-66
2022/01/26 06:15:58;;;;;;;12.60;5.10;;;3.80;76.50;;;;;;5056450;28;20406;-68
2022/01/26 06:18:25;;;;;;;13.48;5.65;;;3.80;76.50;;;;;;5054266;28;20060;-66
2022/01/26 06:20:52;;;;;;;8.45;4.80;;;3.80;76.40;;;;;;5055291;28;20044;-66
2022/01/26 06:23:24;;;;;;;13.27;5.30;;;3.80;76.50;;;;;;5038180;28;20080;-67
2022/01/26 06:25:52;;;;;;;8.85;3.70;;;3.80;76.50;;;;;;5035369;28;20052;-67
2022/01/26 06:28:21;;;;;;;13.80;4.70;;;3.80;76.60;;;;;;5055220;28;20072;-67
2022/01/26 06:30:52;;;;;;;13.23;6.03;;;3.80;76.60;;;;;;5055591;28;20052;-67
2022/01/26 06:33:20;;;;;;;14.02;4.78;;;3.70;76.60;;;;;;5053380;28;20505;-66
2022/01/26 06:35:47;;;;;;;12.68;5.22;;;3.80;76.70;;;;;;5056875;28;20052;-67
2022/01/26 06:38:15;;;;;;;13.35;5.28;;;3.70;76.80;;;;;;5053531;28;20052;-68
2022/01/26 06:40:42;;;;;;;15.88;6.00;;;3.70;76.90;;;;;;5053638;28;20067;-67
2022/01/26 06:43:12;;;;;;;12.77;5.25;;;3.80;77.00;;;;;;5052937;28;20071;-66
2022/01/26 06:45:46;;;;;;;18.05;5.38;;;3.80;76.90;;;;;;5051764;28;20053;-66
2022/01/26 06:48:41;;;;;;;17.90;5.88;;;3.80;76.90;;;;;;5053797;28;20667;-69
2022/01/26 06:51:08;;;;;;;15.13;6.80;;;3.70;77.10;;;;;;5054568;28;20048;-67
2022/01/26 06:53:35;;;;;;;12.45;5.32;;;3.80;77.10;;;;;;5054050;28;20082;-68
2022/01/26 06:56:02;;;;;;;13.60;6.00;;;3.80;77.10;;;;;;5054535;28;20037;-66
2022/01/26 06:58:29;;;;;;;12.00;5.43;;;3.80;77.10;;;;;;5053988;28;20143;-67
2022/01/26 07:00:58;;;;;;;13.45;5.47;;;3.80;77.20;;;;;;5051965;28;20056;-67
2022/01/26 07:03:25;;;;;;;16.30;5.80;;;3.80;77.20;;;;;;5053497;28;20052;-68
2022/01/26 07:05:51;;;;;;;17.98;5.88;;;3.80;77.30;;;;;;5048331;28;20059;-68
2022/01/26 07:08:19;;;;;;;12.65;5.85;;;3.80;77.20;;;;;;5050414;28;20389;-67
2022/01/26 07:10:48;;;;;;;14.45;4.78;;;3.80;77.20;;;;;;5049971;28;20048;-67
2022/01/26 07:13:15;;;;;;;12.77;5.90;;;3.80;77.30;;;;;;5049289;28;20427;-67
2022/01/26 07:21:25;;;;;;;17.27;6.55;;;3.80;77.30;;;;;;5055024;28;20048;-66
2022/01/26 07:23:53;;;;;;;14.48;6.60;;;3.80;77.40;;;;;;5031713;28;20049;-67
2022/01/26 07:26:20;;;;;;;13.80;5.68;;;3.80;77.50;;;;;;5024373;28;20060;-67
2022/01/26 07:28:47;;;;;;;18.05;6.82;;;3.80;77.70;;;;;;5031839;28;20311;-66
2022/01/26 07:31:14;;;;;;;18.33;6.88;;;3.80;77.70;;;;;;5043340;28;20048;-66
2022/01/26 07:33:43;;;;;;;16.92;6.65;;;3.80;77.70;;;;;;5054052;28;20059;-67
2022/01/26 07:36:10;;;;;;;15.57;7.10;;;3.80;77.70;;;;;;5053219;28;20166;-67
2022/01/26 07:38:37;;;;;;;15.25;6.75;;;3.80;77.80;;;;;;5043633;28;20048;-69
2022/01/26 07:41:04;;;;;;;18.55;6.57;;;3.80;78.10;;;;;;5047076;28;20048;-68
2022/01/26 07:43:32;;;;;;;18.92;7.32;;;3.80;78.20;;;;;;5045311;28;20049;-68
2022/01/26 07:45:59;;;;;;;12.27;6.00;;;3.80;78.50;;;;;;5048704;28;20060;-68
2022/01/26 07:48:26;;;;;;;15.25;5.85;;;3.80;78.80;;;;;;5030292;28;20399;-67
2022/01/26 07:50:55;;;;;;;19.00;6.95;;;3.80;78.70;;;;;;5048179;28;20098;-67
2022/01/26 07:53:22;;;;;;;13.60;5.67;;;3.80;78.70;;;;;;5047910;28;20064;-66
2022/01/26 07:55:50;;;;;;;12.32;5.80;;;3.80;78.80;;;;;;5045332;28;20068;-68
2022/01/26 07:58:18;;;;;;;11.82;5.22;;;3.80;78.70;;;;;;5047154;28;20048;-65
2022/01/26 08:00:45;;;;;;;14.35;5.95;;;3.80;78.80;;;;;;4933296;28;21876;-68
2022/01/26 08:03:12;;;;;;;4.30;2.42;;;3.80;78.90;;;;;;307559;28;10022646;-67
2022/01/26 08:05:39;;;;;;;17.42;6.30;;;3.80;79.00;;;;;;5045996;28;21462;-68
2022/01/26 08:08:08;;;;;;;13.15;4.78;;;3.80;78.90;;;;;;5030963;28;20063;-68
2022/01/26 08:10:35;;;;;;;10.07;4.93;;;3.80;78.80;;;;;;5044031;28;20048;-66
2022/01/26 08:13:02;;;;;;;12.00;5.55;;;3.80;78.70;;;;;;5046259;28;20490;-67
2022/01/26 08:15:29;;;;;;;13.25;5.72;;;3.80;78.90;;;;;;5047452;28;20059;-67
2022/01/26 08:17:58;;;;;;;12.93;5.07;;;3.80;78.80;;;;;;5046079;28;20060;-69
2022/01/26 08:20:25;;;;;;;14.23;5.75;;;3.80;78.90;;;;;;5044003;28;20126;-68
2022/01/26 08:22:53;;;;;;;17.02;6.30;;;3.80;79.00;;;;;;5044758;28;20048;-67
2022/01/26 08:25:22;;;;;;;16.05;6.47;;;3.80;79.10;;;;;;5045340;28;20045;-68
2022/01/26 08:27:55;;;;;;;14.60;5.38;;;3.80;79.30;;;;;;5044246;28;20440;-68
2022/01/26 08:30:22;;;;;;;12.80;4.95;;;3.80;79.30;;;;;;5045211;28;20072;-67
2022/01/26 08:32:49;;;;;;;14.73;5.82;;;3.80;79.50;;;;;;5047613;28;20059;-68
2022/01/26 08:35:17;;;;;;;12.65;5.57;;;3.80;79.50;;;;;;5026928;28;20107;-67
2022/01/26 08:37:44;;;;;;;11.60;5.03;;;3.80;79.60;;;;;;5020567;28;20501;-67
2022/01/26 08:40:11;;;;;;;12.68;5.18;;;3.80;79.70;;;;;;5024235;28;20053;-67
2022/01/26 08:42:42;;;;;;;15.07;5.70;;;3.80;79.70;;;;;;5024304;28;20049;-68
2022/01/26 08:45:09;;;;;;;11.77;4.65;;;3.80;79.70;;;;;;5025380;28;20513;-67
2022/01/26 08:47:36;;;;;;;13.63;5.97;;;3.80;79.90;;;;;;5025464;28;20524;-69
2022/01/26 08:50:05;;;;;;;11.93;4.82;;;3.70;79.90;;;;;;5024477;28;20063;-68
2022/01/26 08:52:33;;;;;;;15.02;6.97;;;3.70;79.90;;;;;;5022666;28;20044;-68
2022/01/26 08:54:59;;;;;;;12.73;5.53;;;3.70;80.00;;;;;;5026639;28;20045;-68
2022/01/26 08:57:26;;;;;;;19.70;6.10;;;3.70;80.00;;;;;;5023996;28;20186;-67
2022/01/26 08:59:55;;;;;;;14.07;6.45;;;3.70;79.90;;;;;;5025128;28;20182;-67
2022/01/26 09:02:22;;;;;;;14.02;5.72;;;3.70;79.80;;;;;;5027790;28;20807;-72
2022/01/26 09:04:49;;;;;;;12.50;5.57;;;3.80;79.70;;;;;;5025240;28;20231;-72
2022/01/26 09:07:20;;;;;;;14.23;5.93;;;3.70;79.70;;;;;;5034413;28;20049;-73
2022/01/26 09:09:48;;;;;;;16.88;6.60;;;3.70;79.80;;;;;;5023511;28;20056;-73
2022/01/26 09:12:17;;;;;;;14.75;6.78;;;3.70;79.70;;;;;;5025827;28;20076;-72
2022/01/26 09:14:45;;;;;;;9.02;4.78;;;3.70;79.70;;;;;;5023625;28;20733;-74
2022/01/26 09:17:14;;;;;;;13.45;5.47;;;3.70;79.70;;;;;;5024658;28;20175;-72
2022/01/26 09:19:43;;;;;;;14.30;6.82;;;3.70;79.70;;;;;;5027076;28;20407;-72
2022/01/26 09:22:11;;;;;;;12.30;4.95;;;3.70;79.60;;;;;;5026354;28;20045;-70
2022/01/26 09:24:41;;;;;;;12.95;5.43;;;3.80;79.70;;;;;;5024239;28;20519;-73
2022/01/26 09:27:09;;;;;;;9.80;5.28;;;3.70;79.70;;;;;;5024288;28;20056;-73
2022/01/26 09:29:37;;;;;;;11.88;5.10;;;3.70;79.60;;;;;;5024444;28;20084;-72
2022/01/26 09:32:06;;;;;;;13.60;6.40;;;3.70;79.60;;;;;;5045360;28;20051;-72
2022/01/26 09:34:36;;;;;;;11.57;5.18;;;3.70;79.70;;;;;;5046349;28;20048;-71
2022/01/26 09:37:04;;;;;;;13.90;5.75;;;3.80;79.60;;;;;;5043272;28;20114;-72
2022/01/26 09:39:30;;;;;;;12.82;4.93;;;3.70;79.80;;;;;;5044176;28;21652;-72
2022/01/26 09:41:59;;;;;;;13.32;5.82;;;3.70;79.80;;;;;;5045525;28;20049;-72
2022/01/26 09:44:26;;;;;;;11.93;5.28;;;3.70;79.90;;;;;;5047693;28;20378;-73
2022/01/26 09:46:53;;;;;;;12.13;6.15;;;3.70;79.90;;;;;;5045661;28;20168;-73
2022/01/26 09:49:20;;;;;;;11.65;4.82;;;3.80;79.80;;;;;;5045962;28;20059;-72
2022/01/26 09:51:51;;;;;;;11.90;4.55;;;3.80;79.70;;;;;;5043478;28;20070;-72
2022/01/26 09:54:19;;;;;;;;;;;3.80;79.60;;;;;;5047918;28;20049;-72
2022/01/26 09:56:48;;;;;;;9.43;4.07;;;3.80;79.50;;;;;;5043199;28;20057;-72
2022/01/26 09:59:17;;;;;;;12.98;4.80;;;3.80;79.50;;;;;;5042599;28;20774;-73
2022/01/26 10:01:55;;;;;;;7.65;2.95;;;3.80;79.50;;;;;;3897992;28;10001986;-72
2022/01/26 10:04:25;;;;;;;10.27;3.60;;;3.80;79.60;;;;;;2429721;28;10002003;-72
2022/01/26 10:07:10;;;;;;;12.33;5.23;;;3.80;79.50;;;;;;5042246;28;20082;-73
2022/01/26 10:09:49;;;;;;;9.70;4.68;;;3.80;79.60;;;;;;5039406;28;22144;-72
2022/01/26 10:15:31;;;;;;;13.05;4.28;;;3.80;79.40;;;;;;5005708;28;20535;-72
2022/01/26 10:18:09;;;;;;;16.45;5.03;;;3.80;79.50;;;;;;5044349;28;20052;-72
2022/01/26 10:20:44;;;;;;;9.38;3.95;;;3.80;79.50;;;;;;5045779;28;20391;-71
2022/01/26 10:23:16;;;;;;;12.07;6.10;;;3.80;79.40;;;;;;5048305;28;20049;-71
2022/01/26 10:25:45;;;;;;;11.20;4.30;;;3.90;79.60;;;;;;5049879;28;20092;-72
2022/01/26 10:28:15;;;;;;;9.45;4.28;;;3.80;79.60;;;;;;5047581;28;20105;-73
2022/01/26 10:30:47;;;;;;;12.77;4.93;;;3.80;79.60;;;;;;5046564;28;20135;-73
2022/01/26 10:33:17;;;;;;;13.15;5.22;;;3.80;79.60;;;;;;5038685;28;20256;-72
2022/01/26 10:35:44;;;;;;;10.88;4.65;;;3.90;79.50;;;;;;5053513;28;20509;-74
2022/01/26 10:38:15;;;;;;;13.05;6.25;;;3.80;79.50;;;;;;5056032;28;20049;-72
2022/01/26 10:40:42;;;;;;;10.30;4.05;;;3.80;79.50;;;;;;5042342;28;20141;-72
2022/01/26 10:43:11;;;;;;;10.93;5.20;;;3.80;79.40;;;;;;5048982;28;20052;-73
2022/01/26 10:45:52;;;;;;;13.15;5.03;;;3.80;79.40;;;;;;5049412;28;20877;-72
2022/01/26 10:48:26;;;;;;;10.02;3.58;;;3.90;79.40;;;;;;5049380;28;20551;-72
2022/01/26 10:53:46;;;;;;;8.55;4.00;;;3.90;79.30;;;;;;5025230;28;20059;-72
2022/01/26 10:56:13;;;;;;;9.75;3.97;;;3.90;79.30;;;;;;5048804;28;20075;-73
2022/01/26 10:58:41;;;;;;;12.25;4.93;;;3.90;79.50;;;;;;5046604;28;20055;-72
2022/01/26 11:01:08;;;;;;;11.07;4.80;;;3.90;79.60;;;;;;5048506;28;20044;-72
2022/01/26 11:03:35;;;;;;;11.55;4.97;;;3.80;79.50;;;;;;5029682;28;20461;-72
2022/01/26 11:06:04;;;;;;;9.63;3.70;;;3.90;79.70;;;;;;5048415;28;20116;-72
2022/01/26 11:08:36;;;;;;;12.10;4.40;;;3.90;79.60;;;;;;5046962;28;20056;-72
2022/01/26 11:11:05;;;;;;;13.43;5.25;;;3.90;79.50;;;;;;5028623;28;20401;-73
2022/01/26 11:13:39;;;;;;;9.80;3.63;;;3.90;79.50;;;;;;5047470;28;20060;-73
2022/01/26 11:16:09;;;;;;;14.25;4.80;;;3.90;79.50;;;;;;5051683;28;20110;-72
2022/01/26 11:18:47;;;;;;;10.27;5.05;;;3.90;79.50;;;;;;5047286;28;20056;-72
2022/01/26 11:21:26;;;;;;;11.93;4.07;;;3.90;79.50;;;;;;5048694;28;20060;-72
2022/01/26 11:24:06;;;;;;;12.60;4.38;;;3.90;79.40;;;;;;5047940;28;20398;-72
2022/01/26 11:26:35;;;;;;;13.60;6.18;;;3.90;79.30;;;;;;5046526;28;20044;-72
2022/01/26 11:29:13;;;;;;;9.98;4.72;;;3.90;79.30;;;;;;5047192;28;20497;-72
2022/01/26 11:31:41;;;;;;;10.98;4.30;;;3.90;79.20;;;;;;5027949;28;20498;-73
2022/01/26 11:34:09;;;;;;;9.45;5.47;;;4.00;79.30;;;;;;5029313;28;20063;-73
2022/01/26 11:36:36;;;;;;;10.38;4.07;;;4.00;79.30;;;;;;5027862;28;20758;-71
2022/01/26 11:45:07;;;;;;;8.35;4.18;;;4.00;79.10;;;;;;4977796;28;20418;-72
2022/01/26 11:47:38;;;;;;;9.82;5.13;;;4.00;79.20;;;;;;5025863;28;20131;-72
2022/01/26 11:50:14;;;;;;;9.27;4.20;;;4.00;79.30;;;;;;5026116;28;20405;-71
2022/01/26 11:52:44;;;;;;;10.05;4.32;;;4.00;79.10;;;;;;5026794;28;20060;-72
2022/01/26 11:55:27;;;;;;;10.30;4.72;;;4.00;79.00;;;;;;5026532;28;20051;-73
2022/01/26 11:58:07;;;;;;;13.82;4.93;;;3.90;79.10;;;;;;5025411;28;20060;-73
2022/01/26 12:00:48;;;;;;;6.50;2.86;;;4.00;79.20;;;;;;3725644;28;10150846;-72
2022/01/26 12:03:31;;;;;;;12.30;5.43;;;4.00;79.20;;;;;;2769005;28;10002515;-73
2022/01/26 12:05:58;;;;;;;9.70;3.92;;;4.00;79.20;;;;;;5025091;28;20055;-73
2022/01/26 12:08:35;;;;;;;12.27;5.28;;;4.00;79.20;;;;;;5024035;28;20049;-72
2022/01/26 12:11:03;;;;;;;9.18;4.60;;;4.00;79.20;;;;;;5023275;28;20425;-71
2022/01/26 12:13:33;;;;;;;9.55;3.72;;;4.00;79.30;;;;;;5023625;28;20060;-72
2022/01/26 12:16:07;;;;;;;11.32;4.70;;;4.00;79.20;;;;;;5026377;28;20053;-71
2022/01/26 12:18:39;;;;;;;11.52;4.65;;;4.00;79.20;;;;;;5026797;28;20695;-72
2022/01/26 12:35:38;;;;;;;14.48;6.00;;;4.10;78.10;;;;;;5045751;28;20048;-71
2022/01/26 12:38:14;;;;;;;18.02;6.80;;;4.10;77.90;;;;;;5046127;28;20044;-72
2022/01/26 12:43:36;;;;;;;22.40;7.95;;;4.10;77.30;;;;;;5028859;28;20136;-73
2022/01/26 12:46:07;;;;;;;18.33;7.30;;;4.10;77.20;;;;;;5027054;28;20049;-72
2022/01/26 12:48:37;;;;;;;24.65;8.15;;;4.10;77.30;;;;;;5026106;28;20044;-73
2022/01/26 12:51:06;;;;;;;18.98;7.50;;;4.10;77.40;;;;;;5040459;28;20052;-71
2022/01/26 12:53:35;;;;;;;14.90;6.95;;;4.00;77.20;;;;;;5046349;28;20383;-72
2022/01/26 12:56:04;;;;;;;18.48;7.35;;;4.00;77.20;;;;;;5033737;28;20037;-72
2022/01/26 12:58:33;;;;;;;17.48;6.95;;;4.00;77.30;;;;;;5025795;28;20053;-72
2022/01/26 13:01:02;;;;;;;16.10;7.50;;;4.00;77.30;;;;;;5025335;28;20048;-72
2022/01/26 13:03:35;;;;;;;16.17;6.85;;;4.00;77.20;;;;;;5025241;28;20045;-72
2022/01/26 13:06:07;;;;;;;20.92;7.85;;;4.00;77.40;;;;;;5026120;28;20114;-72
2022/01/26 13:08:41;;;;;;;19.55;7.07;;;4.00;77.50;;;;;;5009950;28;20045;-72
2022/01/26 13:11:08;;;;;;;19.88;7.13;;;4.00;77.50;;;;;;5023522;28;20057;-72
2022/01/26 13:13:36;;;;;;;18.42;7.47;;;4.00;77.30;;;;;;5023680;28;20136;-72
2022/01/26 13:16:15;;;;;;;18.02;7.05;;;4.10;77.10;;;;;;5026178;28;20063;-71
2022/01/26 13:19:20;;;;;;;20.33;7.82;;;4.10;77.20;;;;;;5025142;28;20503;-71
2022/01/26 13:22:24;;;;;;;20.48;7.78;;;4.10;77.20;;;;;;5023364;28;20055;-72
2022/01/26 13:25:01;;;;;;;14.07;6.85;;;4.00;77.20;;;;;;5023989;28;20775;-72
2022/01/26 13:27:38;;;;;;;21.38;7.75;;;4.10;77.40;;;;;;5041004;28;20136;-72
2022/01/26 13:30:24;;;;;;;18.52;8.43;;;4.10;77.40;;;;;;5023824;28;20329;-71
2022/01/26 13:33:09;;;;;;;20.15;7.80;;;4.10;77.50;;;;;;5028562;28;20191;-72
2022/01/26 13:35:45;;;;;;;20.52;7.43;;;4.10;77.50;;;;;;5028832;28;20562;-73
2022/01/26 13:38:24;;;;;;;21.33;8.55;;;4.10;77.50;;;;;;5029378;28;20589;-71
2022/01/26 13:41:01;;;;;;;18.90;7.97;;;4.10;77.50;;;;;;5029739;28;20057;-71
2022/01/26 13:52:21;;;;;;;15.90;7.15;;;4.10;77.70;;;;;;5027535;28;19939;-72
2022/01/26 13:55:01;;;;;;;18.60;6.90;;;4.10;77.70;;;;;;4998997;28;20101;-72
2022/01/26 13:57:45;;;;;;;21.15;8.68;;;4.10;77.50;;;;;;5032919;28;20060;-72
2022/01/26 14:00:17;;;;;;;16.98;7.28;;;4.10;77.50;;;;;;4982007;28;20802;-72
2022/01/26 14:03:05;;;;;;;18.90;7.40;;;4.20;77.50;;;;;;4052945;28;10001984;-70
2022/01/26 14:05:32;;;;;;;17.50;8.32;;;4.20;77.50;;;;;;2772497;28;10002044;-71
2022/01/26 14:08:01;;;;;;;21.77;7.43;;;4.20;77.50;;;;;;5035867;28;20057;-72
2022/01/26 14:10:28;;;;;;;19.88;7.85;;;4.20;77.60;;;;;;5017010;28;20517;-71
2022/01/26 14:12:56;;;;;;;19.50;8.25;;;4.20;77.70;;;;;;5036820;28;20487;-73
2022/01/26 14:15:27;;;;;;;19.45;7.72;;;4.20;77.70;;;;;;5018656;28;20048;-72
2022/01/26 14:18:03;;;;;;;22.60;7.60;;;4.20;77.80;;;;;;5035201;28;20049;-73
2022/01/26 14:23:29;;;;;;;;;;;4.20;77.70;;;;;;5033889;28;20047;-71
2022/01/26 14:25:57;;;;;;;16.75;6.97;;;4.10;77.50;;;;;;5035000;28;19928;-72
2022/01/26 14:28:31;;;;;;;20.08;7.18;;;4.20;77.60;;;;;;5035112;28;20584;-73
2022/01/26 14:31:11;;;;;;;21.05;8.15;;;4.20;77.80;;;;;;5043010;28;20147;-72
2022/01/26 14:33:53;;;;;;;24.75;7.93;;;4.10;77.80;;;;;;5035624;28;20483;-72
2022/01/26 14:36:28;;;;;;;25.95;9.68;;;4.20;77.80;;;;;;5031989;28;20502;-71
2022/01/26 14:53:39;;;;;;;21.23;8.23;;;4.00;78.20;;;;;;5054736;28;20577;-72
2022/01/26 14:56:02;;;;;;;21.48;7.88;;;4.00;78.30;;;;;;5053628;28;20063;-72
2022/01/26 15:08:43;;;;;;;20.13;9.18;;;4.00;78.20;;;;;;5051962;28;20045;-72
2022/01/26 15:10:49;;;;;;;21.23;7.80;;;4.10;78.40;;;;;;5032574;28;20052;-73
2022/01/26 15:35:05;;;;;;;22.13;8.40;;;4.00;78.70;;;;;;5049626;28;20051;-71